Inicio METAR Ruta Wind Satelite

Informe Meteorológico

Fecha: 2024/06/18 19:46:45 Local
2024.06.19 00:46 UTC


Operación:VFR
SKPV 190000Z NIL =

SKPV 182300Z 11017KT 070V140 9999 SCT017 29/28 Q1008
SKPV 182200Z 11017KT 080V150 9999 SCT017 30/28 Q1008
SKPV 182100Z 11014KT 070V140 9999 SCT017 30/28 Q1008
SKPV 182000Z 11014KT 070V140 9999 SCT017 30/28 Q1008
SKPV 181900Z 10014KT 9999 SCT017 29/28 Q1009